sensor_id;sensor_type;location;lat;lon;timestamp;pressure;altitude;pressure_sealevel;temperature;humidity
32330;BME280;18807;52.434;13.238;2022-08-20T00:06:10;100831.34;;;20.48;100.00
32330;BME280;18807;52.434;13.238;2022-08-20T00:13:46;100842.31;;;20.43;100.00
32330;BME280;18807;52.434;13.238;2022-08-20T00:21:22;100845.91;;;20.45;100.00
32330;BME280;18807;52.434;13.238;2022-08-20T00:28:56;100849.56;;;20.44;100.00
32330;BME280;18807;52.434;13.238;2022-08-20T00:36:32;100853.31;;;20.37;100.00
32330;BME280;18807;52.434;13.238;2022-08-20T00:44:09;100849.81;;;20.34;100.00
32330;BME280;18807;52.434;13.238;2022-08-20T00:51:48;100848.06;;;20.30;100.00
32330;BME280;18807;52.434;13.238;2022-08-20T00:59:28;100850.81;;;20.28;100.00
32330;BME280;18807;52.434;13.238;2022-08-20T01:07:06;100858.09;;;20.28;100.00
32330;BME280;18807;52.434;13.238;2022-08-20T01:14:40;100859.06;;;20.24;100.00
32330;BME280;18807;52.434;13.238;2022-08-20T01:22:24;100861.03;;;20.17;100.00
32330;BME280;18807;52.434;13.238;2022-08-20T01:30:20;100859.25;;;20.16;100.00
32330;BME280;18807;52.434;13.238;2022-08-20T01:37:54;100861.91;;;20.18;100.00
32330;BME280;18807;52.434;13.238;2022-08-20T01:45:29;100858.28;;;20.19;100.00
32330;BME280;18807;52.434;13.238;2022-08-20T01:53:10;100868.22;;;20.20;100.00
32330;BME280;18807;52.434;13.238;2022-08-20T02:00:48;100863.81;;;20.14;100.00
32330;BME280;18807;52.434;13.238;2022-08-20T02:08:22;100866.56;;;20.13;100.00
32330;BME280;18807;52.434;13.238;2022-08-20T02:15:58;100871.06;;;20.14;100.00
32330;BME280;18807;52.434;13.238;2022-08-20T02:23:32;100881.97;;;20.09;100.00
32330;BME280;18807;52.434;13.238;2022-08-20T02:31:07;100881.03;;;20.12;100.00
32330;BME280;18807;52.434;13.238;2022-08-20T02:38:41;100887.41;;;20.09;100.00
32330;BME280;18807;52.434;13.238;2022-08-20T02:46:17;100893.69;;;20.11;100.00
32330;BME280;18807;52.434;13.238;2022-08-20T02:53:51;100895.50;;;20.11;100.00
32330;BME280;18807;52.434;13.238;2022-08-20T03:01:26;100891.00;;;20.10;100.00
32330;BME280;18807;52.434;13.238;2022-08-20T03:09:00;100876.59;;;20.06;100.00
32330;BME280;18807;52.434;13.238;2022-08-20T03:16:38;100857.75;;;20.00;100.00
32330;BME280;18807;52.434;13.238;2022-08-20T03:24:12;100863.13;;;20.03;100.00
32330;BME280;18807;52.434;13.238;2022-08-20T03:31:47;100856.78;;;20.04;100.00
32330;BME280;18807;52.434;13.238;2022-08-20T03:39:21;100866.69;;;20.05;100.00
32330;BME280;18807;52.434;13.238;2022-08-20T03:46:56;100867.59;;;20.06;100.00
32330;BME280;18807;52.434;13.238;2022-08-20T03:54:30;100860.41;;;20.03;100.00
32330;BME280;18807;52.434;13.238;2022-08-20T04:02:05;100860.41;;;20.03;100.00
32330;BME280;18807;52.434;13.238;2022-08-20T04:09:39;100871.25;;;20.03;100.00
32330;BME280;18807;52.434;13.238;2022-08-20T04:17:18;100888.50;;;20.01;100.00
32330;BME280;18807;52.434;13.238;2022-08-20T04:24:54;100893.88;;;20.02;100.00
32330;BME280;18807;52.434;13.238;2022-08-20T04:32:29;100882.16;;;20.00;100.00
32330;BME280;18807;52.434;13.238;2022-08-20T04:40:05;100887.63;;;19.99;100.00
32330;BME280;18807;52.434;13.238;2022-08-20T04:48:00;100894.84;;;20.00;100.00
32330;BME280;18807;52.434;13.238;2022-08-20T04:55:39;100897.50;;;20.03;100.00
32330;BME280;18807;52.434;13.238;2022-08-20T05:03:16;100900.22;;;20.03;100.00
32330;BME280;18807;52.434;13.238;2022-08-20T05:10:51;100910.13;;;20.04;100.00
32330;BME280;18807;52.434;13.238;2022-08-20T05:18:47;100921.00;;;20.02;100.00
32330;BME280;18807;52.434;13.238;2022-08-20T05:26:24;100921.00;;;20.02;100.00
32330;BME280;18807;52.434;13.238;2022-08-20T05:34:00;100916.53;;;20.01;100.00
32330;BME280;18807;52.434;13.238;2022-08-20T05:41:34;100910.22;;;19.99;100.00
32330;BME280;18807;52.434;13.238;2022-08-20T05:49:11;100924.63;;;20.03;100.00
32330;BME280;18807;52.434;13.238;2022-08-20T05:56:46;100925.56;;;20.00;100.00
32330;BME280;18807;52.434;13.238;2022-08-20T06:04:22;100934.53;;;20.04;100.00
32330;BME280;18807;52.434;13.238;2022-08-20T06:12:01;100929.19;;;20.01;100.00
32330;BME280;18807;52.434;13.238;2022-08-20T06:19:38;100934.47;;;20.07;100.00
32330;BME280;18807;52.434;13.238;2022-08-20T06:27:16;100948.06;;;20.05;100.00
32330;BME280;18807;52.434;13.238;2022-08-20T06:34:51;100948.94;;;20.07;100.00
32330;BME280;18807;52.434;13.238;2022-08-20T06:42:26;100961.63;;;20.05;100.00
32330;BME280;18807;52.434;13.238;2022-08-20T06:50:02;100955.31;;;20.05;100.00
32330;BME280;18807;52.434;13.238;2022-08-20T06:57:40;100965.22;;;20.07;100.00
32330;BME280;18807;52.434;13.238;2022-08-20T07:05:16;100963.34;;;20.09;100.00
32330;BME280;18807;52.434;13.238;2022-08-20T07:12:50;100969.72;;;20.08;100.00
32330;BME280;18807;52.434;13.238;2022-08-20T07:20:26;100994.91;;;20.16;100.00
32330;BME280;18807;52.434;13.238;2022-08-20T07:28:01;100988.59;;;20.14;100.00
32330;BME280;18807;52.434;13.238;2022-08-20T07:35:37;100994.97;;;20.13;100.00
32330;BME280;18807;52.434;13.238;2022-08-20T07:43:11;101003.09;;;20.13;100.00
32330;BME280;18807;52.434;13.238;2022-08-20T07:50:48;100998.50;;;20.17;100.00
32330;BME280;18807;52.434;13.238;2022-08-20T07:58:22;100995.72;;;20.20;100.00
32330;BME280;18807;52.434;13.238;2022-08-20T08:06:06;101008.47;;;20.16;100.00
32330;BME280;18807;52.434;13.238;2022-08-20T08:13:41;101011.09;;;20.19;100.00
32330;BME280;18807;52.434;13.238;2022-08-20T08:21:16;101017.41;;;20.21;100.00
32330;BME280;18807;52.434;13.238;2022-08-20T08:28:51;101015.66;;;20.19;100.00
32330;BME280;18807;52.434;13.238;2022-08-20T08:36:27;101029.19;;;20.20;100.00
32330;BME280;18807;52.434;13.238;2022-08-20T08:44:04;101029.06;;;20.26;100.00
32330;BME280;18807;52.434;13.238;2022-08-20T08:51:45;101027.13;;;20.31;100.00
32330;BME280;18807;52.434;13.238;2022-08-20T08:59:21;101047.00;;;20.33;100.00
32330;BME280;18807;52.434;13.238;2022-08-20T09:06:57;101052.19;;;20.45;100.00
32330;BME280;18807;52.434;13.238;2022-08-20T09:14:31;101058.53;;;20.44;100.00
32330;BME280;18807;52.434;13.238;2022-08-20T09:22:09;101057.56;;;20.48;100.00
32330;BME280;18807;52.434;13.238;2022-08-20T09:29:43;101052.78;;;20.59;100.00
32330;BME280;18807;52.434;13.238;2022-08-20T09:37:23;101042.59;;;20.70;100.00
32330;BME280;18807;52.434;13.238;2022-08-20T09:44:58;101050.47;;;20.82;100.00
32330;BME280;18807;52.434;13.238;2022-08-20T09:52:36;101047.56;;;20.91;100.00
32330;BME280;18807;52.434;13.238;2022-08-20T10:00:13;101051.78;;;21.06;100.00
32330;BME280;18807;52.434;13.238;2022-08-20T10:07:48;101044.25;;;21.18;100.00
32330;BME280;18807;52.434;13.238;2022-08-20T10:15:22;101039.44;;;21.29;100.00
32330;BME280;18807;52.434;13.238;2022-08-20T10:22:57;101048.16;;;21.43;100.00
32330;BME280;18807;52.434;13.238;2022-08-20T10:30:32;101048.69;;;21.57;100.00
32330;BME280;18807;52.434;13.238;2022-08-20T10:38:07;101058.38;;;21.67;100.00
32330;BME280;18807;52.434;13.238;2022-08-20T10:45:41;101060.19;;;21.68;100.00
32330;BME280;18807;52.434;13.238;2022-08-20T10:53:17;101061.00;;;21.72;100.00
32330;BME280;18807;52.434;13.238;2022-08-20T11:00:51;101064.63;;;21.73;98.03
32330;BME280;18807;52.434;13.238;2022-08-20T11:08:27;101073.78;;;21.68;94.56
32330;BME280;18807;52.434;13.238;2022-08-20T11:16:07;101073.78;;;21.68;97.72
32330;BME280;18807;52.434;13.238;2022-08-20T11:23:42;101073.72;;;21.72;98.22
32330;BME280;18807;52.434;13.238;2022-08-20T11:31:16;101082.78;;;21.70;95.73
32330;BME280;18807;52.434;13.238;2022-08-20T11:38:51;101084.72;;;21.67;93.62
32330;BME280;18807;52.434;13.238;2022-08-20T11:46:25;101081.00;;;21.69;95.82
32330;BME280;18807;52.434;13.238;2022-08-20T11:54:01;101088.34;;;21.66;93.68
32330;BME280;18807;52.434;13.238;2022-08-20T12:01:38;101099.50;;;21.55;90.88
32330;BME280;18807;52.434;13.238;2022-08-20T12:09:13;101088.69;;;21.54;91.96
32330;BME280;18807;52.434;13.238;2022-08-20T12:16:46;101086.94;;;21.50;88.78
32330;BME280;18807;52.434;13.238;2022-08-20T12:24:22;101086.97;;;21.48;90.55
32330;BME280;18807;52.434;13.238;2022-08-20T12:31:55;101091.56;;;21.46;95.68
32330;BME280;18807;52.434;13.238;2022-08-20T12:39:31;101094.38;;;21.43;100.00
32330;BME280;18807;52.434;13.238;2022-08-20T12:47:08;101099.00;;;21.38;99.51
32330;BME280;18807;52.434;13.238;2022-08-20T12:54:43;101098.63;;;21.17;100.00
32330;BME280;18807;52.434;13.238;2022-08-20T13:02:17;101101.59;;;21.06;100.00
32330;BME280;18807;52.434;13.238;2022-08-20T13:09:53;101103.47;;;21.03;100.00
32330;BME280;18807;52.434;13.238;2022-08-20T13:17:27;101102.69;;;20.96;100.00
32330;BME280;18807;52.434;13.238;2022-08-20T13:25:12;101105.44;;;20.93;100.00
32330;BME280;18807;52.434;13.238;2022-08-20T13:32:46;101106.38;;;20.92;100.00
32330;BME280;18807;52.434;13.238;2022-08-20T13:40:24;101101.03;;;20.88;100.00
32330;BME280;18807;52.434;13.238;2022-08-20T13:47:58;101105.50;;;20.90;100.00
32330;BME280;18807;52.434;13.238;2022-08-20T13:55:33;101102.72;;;20.95;100.00
32330;BME280;18807;52.434;13.238;2022-08-20T14:03:10;101106.34;;;20.94;100.00
32330;BME280;18807;52.434;13.238;2022-08-20T14:10:52;101099.16;;;20.91;100.00
32330;BME280;18807;52.434;13.238;2022-08-20T14:18:26;101090.25;;;20.85;100.00
32330;BME280;18807;52.434;13.238;2022-08-20T14:26:03;101108.31;;;20.87;100.00
32330;BME280;18807;52.434;13.238;2022-08-20T14:33:37;101100.91;;;20.94;100.00
32330;BME280;18807;52.434;13.238;2022-08-20T14:41:17;101112.66;;;20.97;100.00
32330;BME280;18807;52.434;13.238;2022-08-20T14:48:51;101110.66;;;21.04;100.00
32330;BME280;18807;52.434;13.238;2022-08-20T14:56:26;101103.44;;;21.04;100.00
32330;BME280;18807;52.434;13.238;2022-08-20T15:04:00;101098.94;;;21.03;100.00
32330;BME280;18807;52.434;13.238;2022-08-20T15:11:35;101105.25;;;21.04;100.00
32330;BME280;18807;52.434;13.238;2022-08-20T15:19:11;101111.53;;;21.06;100.00
32330;BME280;18807;52.434;13.238;2022-08-20T15:26:46;101095.19;;;21.09;100.00
32330;BME280;18807;52.434;13.238;2022-08-20T15:34:23;101102.34;;;21.11;100.00
32330;BME280;18807;52.434;13.238;2022-08-20T15:41:58;101113.09;;;21.17;100.00
32330;BME280;18807;52.434;13.238;2022-08-20T15:49:32;101110.28;;;21.20;100.00
32330;BME280;18807;52.434;13.238;2022-08-20T15:57:11;101114.78;;;21.23;100.00
32330;BME280;18807;52.434;13.238;2022-08-20T16:04:54;101115.59;;;21.26;100.00
32330;BME280;18807;52.434;13.238;2022-08-20T16:12:36;101105.66;;;21.25;100.00
32330;BME280;18807;52.434;13.238;2022-08-20T16:20:16;101107.41;;;21.28;100.00
32330;BME280;18807;52.434;13.238;2022-08-20T16:28:04;101110.06;;;21.31;100.00
32330;BME280;18807;52.434;13.238;2022-08-20T16:35:49;101103.75;;;21.29;100.00
32330;BME280;18807;52.434;13.238;2022-08-20T16:43:30;101114.66;;;21.27;100.00
32330;BME280;18807;52.434;13.238;2022-08-20T16:51:09;101131.03;;;21.26;100.00
32330;BME280;18807;52.434;13.238;2022-08-20T16:58:47;101121.00;;;21.28;100.00
32330;BME280;18807;52.434;13.238;2022-08-20T17:06:25;101125.53;;;21.27;100.00
32330;BME280;18807;52.434;13.238;2022-08-20T17:14:10;101115.63;;;21.25;100.00
32330;BME280;18807;52.434;13.238;2022-08-20T17:21:45;101135.56;;;21.25;100.00
32330;BME280;18807;52.434;13.238;2022-08-20T17:29:25;101127.47;;;21.22;100.00
32330;BME280;18807;52.434;13.238;2022-08-20T17:37:05;101132.00;;;21.22;100.00
32330;BME280;18807;52.434;13.238;2022-08-20T17:44:49;101144.81;;;21.17;100.00
32330;BME280;18807;52.434;13.238;2022-08-20T17:52:29;101143.00;;;21.16;100.00
32330;BME280;18807;52.434;13.238;2022-08-20T18:00:07;101169.63;;;21.00;100.00
32330;BME280;18807;52.434;13.238;2022-08-20T18:08:08;101179.44;;;20.62;100.00
32330;BME280;18807;52.434;13.238;2022-08-20T18:15:52;101186.94;;;20.48;100.00
32330;BME280;18807;52.434;13.238;2022-08-20T18:23:30;101171.81;;;20.35;100.00
32330;BME280;18807;52.434;13.238;2022-08-20T18:31:08;101176.44;;;20.28;100.00
32330;BME280;18807;52.434;13.238;2022-08-20T18:38:59;101177.44;;;20.23;100.00
32330;BME280;18807;52.434;13.238;2022-08-20T18:46:36;101167.59;;;20.19;100.00
32330;BME280;18807;52.434;13.238;2022-08-20T18:54:22;101184.81;;;20.16;100.00
32330;BME280;18807;52.434;13.238;2022-08-20T19:01:58;101185.78;;;20.12;100.00
32330;BME280;18807;52.434;13.238;2022-08-20T19:09:55;101188.50;;;20.12;100.00
32330;BME280;18807;52.434;13.238;2022-08-20T19:17:43;101196.75;;;20.03;100.00
32330;BME280;18807;52.434;13.238;2022-08-20T19:25:23;101195.94;;;19.98;100.00
32330;BME280;18807;52.434;13.238;2022-08-20T19:33:00;101190.44;;;20.03;100.00
32330;BME280;18807;52.434;13.238;2022-08-20T19:40:35;101188.66;;;20.00;100.00
32330;BME280;18807;52.434;13.238;2022-08-20T19:48:37;101190.44;;;20.03;100.00
32330;BME280;18807;52.434;13.238;2022-08-20T19:56:18;101187.81;;;19.98;100.00
32330;BME280;18807;52.434;13.238;2022-08-20T20:03:57;101197.81;;;19.93;100.00
32330;BME280;18807;52.434;13.238;2022-08-20T20:11:34;101200.53;;;19.93;100.00
32330;BME280;18807;52.434;13.238;2022-08-20T20:19:11;101196.03;;;19.94;100.00
32330;BME280;18807;52.434;13.238;2022-08-20T20:27:01;101192.34;;;19.96;100.00
32330;BME280;18807;52.434;13.238;2022-08-20T20:34:38;101190.63;;;19.91;100.00
32330;BME280;18807;52.434;13.238;2022-08-20T20:42:28;101196.09;;;19.89;100.00
32330;BME280;18807;52.434;13.238;2022-08-20T20:50:09;101197.88;;;19.90;100.00
32330;BME280;18807;52.434;13.238;2022-08-20T20:57:43;101196.97;;;19.88;100.00
32330;BME280;18807;52.434;13.238;2022-08-20T21:05:20;101201.50;;;19.89;100.00
32330;BME280;18807;52.434;13.238;2022-08-20T21:12:56;101192.44;;;19.90;100.00
32330;BME280;18807;52.434;13.238;2022-08-20T21:20:32;101184.28;;;19.92;100.00
32330;BME280;18807;52.434;13.238;2022-08-20T21:28:06;101187.00;;;19.92;100.00
32330;BME280;18807;52.434;13.238;2022-08-20T21:35:42;101188.78;;;19.93;100.00
32330;BME280;18807;52.434;13.238;2022-08-20T21:43:16;101187.91;;;19.92;100.00
32330;BME280;18807;52.434;13.238;2022-08-20T21:50:51;101177.13;;;19.88;100.00
32330;BME280;18807;52.434;13.238;2022-08-20T21:58:25;101174.50;;;19.82;100.00
32330;BME280;18807;52.434;13.238;2022-08-20T22:06:01;101168.22;;;19.78;100.00
32330;BME280;18807;52.434;13.238;2022-08-20T22:13:43;101161.09;;;19.72;100.00
32330;BME280;18807;52.434;13.238;2022-08-20T22:21:21;101158.41;;;19.71;100.00
32330;BME280;18807;52.434;13.238;2022-08-20T22:28:55;101163.84;;;19.71;100.00
32330;BME280;18807;52.434;13.238;2022-08-20T22:36:31;101152.09;;;19.70;100.00
32330;BME280;18807;52.434;13.238;2022-08-20T22:44:06;101162.91;;;19.72;100.00
32330;BME280;18807;52.434;13.238;2022-08-20T22:51:42;101166.50;;;19.74;100.00
32330;BME280;18807;52.434;13.238;2022-08-20T22:59:16;101166.47;;;19.75;100.00
32330;BME280;18807;52.434;13.238;2022-08-20T23:06:52;101169.19;;;19.75;100.00
32330;BME280;18807;52.434;13.238;2022-08-20T23:14:26;101171.88;;;19.77;100.00
32330;BME280;18807;52.434;13.238;2022-08-20T23:22:02;101167.38;;;19.76;100.00
32330;BME280;18807;52.434;13.238;2022-08-20T23:29:36;101166.50;;;19.74;100.00
32330;BME280;18807;52.434;13.238;2022-08-20T23:37:12;101168.31;;;19.73;100.00
32330;BME280;18807;52.434;13.238;2022-08-20T23:44:45;101168.34;;;19.70;100.00
32330;BME280;18807;52.434;13.238;2022-08-20T23:52:21;101167.53;;;19.65;100.00
32330;BME280;18807;52.434;13.238;2022-08-20T23:59:55;101177.53;;;19.62;100.00
